Time;durP1;ratioP1;P1;durP2;ratioP2;P2;SDS_P1;SDS_P2;PMS_P1;PMS_P2;Temp;Humidity;BMP_temperature;BMP_pressure;BME280_temperature;BME280_humidity;BME280_pressure;Samples;Min_cycle;Max_cycle;Signal;HPM_P1;HPM_P2
2023/11/25 01:57:35;;;;;;;;;;;;;;;;;;;;;
2023/11/25 02:00:57;;;;;;;1.80;1.45;;;;;;;;;;5864847;24;20029;-79
2023/11/25 02:03:25;;;;;;;1.92;1.20;;;;;;;;;;5958930;24;20031;-80
2023/11/25 02:05:57;;;;;;;3.10;2.20;;;;;;;;;;6024248;23;20028;-80
2023/11/25 02:08:43;;;;;;;7.85;1.35;;;;;;;;;;6077966;23;20018;-80
2023/11/25 02:12:44;;;;;;;;;;;;;;;;;;;;;
2023/11/25 02:15:36;;;;;;;3.08;1.95;;;;;;;;;;5930379;24;20493;-80
2023/11/25 02:18:36;;;;;;;4.90;1.73;;;;;;;;;;6090931;23;20490;-80
2023/11/25 02:22:15;;;;;;;4.35;1.63;;;;;;;;;;6105167;23;20022;-80
2023/11/25 02:45:16;;;;;;;;;;;;;;;;;;;;;
2023/11/25 02:48:20;;;;;;;;;;;;;;;;;;;;;
2023/11/25 02:50:50;;;;;;;3.83;1.88;;;;;;;;;;6006514;23;20027;-80
2023/11/25 02:53:20;;;;;;;2.15;1.70;;;;;;;;;;6071230;23;20029;-80
2023/11/25 02:55:49;;;;;;;2.20;1.80;;;;;;;;;;6102074;23;20014;-80
2023/11/25 02:58:37;;;;;;;2.67;2.03;;;;;;;;;;6138564;23;20028;-80
2023/11/25 03:01:11;;;;;;;2.70;2.42;;;;;;;;;;6110035;23;20018;-80
2023/11/25 03:03:48;;;;;;;2.65;2.15;;;;;;;;;;6117517;23;20020;-80
2023/11/25 03:06:24;;;;;;;5.28;2.72;;;;;;;;;;6117711;23;20044;-80
2023/11/25 03:08:57;;;;;;;3.72;2.40;;;;;;;;;;6143283;23;20022;-80
2023/11/25 03:11:33;;;;;;;2.00;1.40;;;;;;;;;;6107317;23;20018;-80
2023/11/25 03:14:16;;;;;;;8.13;2.35;;;;;;;;;;6083423;23;20018;-80
2023/11/25 03:16:45;;;;;;;13.70;3.40;;;;;;;;;;6082144;23;20350;-80
2023/11/25 03:19:26;;;;;;;2.78;1.90;;;;;;;;;;6116973;23;20029;-80
2023/11/25 03:22:00;;;;;;;4.50;1.60;;;;;;;;;;6081037;23;20017;-80
2023/11/25 03:24:48;;;;;;;4.35;2.15;;;;;;;;;;6117595;23;20014;-80
2023/11/25 03:27:24;;;;;;;2.42;2.13;;;;;;;;;;6116142;23;20020;-80
2023/11/25 03:30:35;;;;;;;2.25;1.40;;;;;;;;;;6139674;23;20347;-80
2023/11/25 03:33:28;;;;;;;;;;;;;;;;;;;;;
2023/11/25 03:36:18;;;;;;;1.85;1.48;;;;;;;;;;6081647;23;20022;-80
2023/11/25 03:38:56;;;;;;;4.18;2.00;;;;;;;;;;6142117;23;20014;-80
2023/11/25 03:41:26;;;;;;;5.65;2.00;;;;;;;;;;6081987;23;20022;-80
2023/11/25 03:43:55;;;;;;;4.50;2.22;;;;;;;;;;6082158;23;20014;-80
2023/11/25 03:46:24;;;;;;;3.33;2.42;;;;;;;;;;6106507;23;20028;-80
2023/11/25 03:48:53;;;;;;;2.65;2.42;;;;;;;;;;6090076;23;20016;-80
2023/11/25 03:51:30;;;;;;;;;;;;;;;;;;6105586;23;20112;-80
2023/11/25 03:53:57;;;;;;;2.78;1.95;;;;;;;;;;6116352;23;19916;-80
2023/11/25 03:56:28;;;;;;;4.13;2.13;;;;;;;;;;6108451;23;20024;-80
2023/11/25 03:59:02;;;;;;;3.50;2.22;;;;;;;;;;6117583;23;20024;-80
2023/11/25 04:01:43;;;;;;;2.72;2.47;;;;;;;;;;6084767;23;20030;-80
2023/11/25 04:04:24;;;;;;;2.30;1.60;;;;;;;;;;6107637;23;20020;-81
2023/11/25 04:07:07;;;;;;;6.35;2.83;;;;;;;;;;6105706;23;20029;-80
2023/11/25 04:10:12;;;;;;;5.75;2.20;;;;;;;;;;6116953;23;20024;-80
2023/11/25 04:13:04;;;;;;;2.58;2.25;;;;;;;;;;6109644;23;20021;-80
2023/11/25 04:15:41;;;;;;;6.43;2.38;;;;;;;;;;6081542;23;20026;-80
2023/11/25 04:18:27;;;;;;;;;;;;;;;;;;;;;
2023/11/25 04:21:15;;;;;;;3.63;2.63;;;;;;;;;;6083153;23;20018;-80
2023/11/25 04:24:11;;;;;;;2.80;1.70;;;;;;;;;;6141132;23;20014;-80
2023/11/25 04:26:56;;;;;;;3.05;2.30;;;;;;;;;;6082663;23;20033;-80
2023/11/25 04:29:42;;;;;;;8.68;2.95;;;;;;;;;;6170027;23;20013;-80
2023/11/25 04:32:10;;;;;;;2.83;2.20;;;;;;;;;;6110936;23;20021;-80
2023/11/25 04:34:37;;;;;;;5.28;2.50;;;;;;;;;;6135867;23;20032;-79
2023/11/25 04:37:04;;;;;;;3.28;2.30;;;;;;;;;;6110809;23;20022;-79
2023/11/25 04:39:33;;;;;;;2.25;1.65;;;;;;;;;;6111616;23;20029;-79
2023/11/25 04:42:00;;;;;;;2.22;1.77;;;;;;;;;;6135673;23;20033;-79
2023/11/25 04:44:28;;;;;;;5.43;3.50;;;;;;;;;;6136144;23;20363;-79
2023/11/25 04:46:55;;;;;;;5.22;3.17;;;;;;;;;;6134164;23;20043;-79
2023/11/25 04:49:22;;;;;;;2.10;1.63;;;;;;;;;;6136542;23;20017;-79
2023/11/25 04:51:50;;;;;;;3.42;1.73;;;;;;;;;;6111144;23;20021;-79
2023/11/25 04:54:17;;;;;;;3.53;2.70;;;;;;;;;;6159320;23;20018;-79
2023/11/25 04:56:46;;;;;;;2.40;2.17;;;;;;;;;;6134434;23;20017;-79
2023/11/25 04:59:14;;;;;;;5.70;1.75;;;;;;;;;;6111097;23;20025;-79
2023/11/25 05:01:41;;;;;;;4.40;2.97;;;;;;;;;;6110594;23;20022;-79
2023/11/25 05:04:08;;;;;;;3.50;2.25;;;;;;;;;;6162353;23;20009;-79
2023/11/25 05:06:36;;;;;;;3.17;1.52;;;;;;;;;;6159073;23;20014;-81
2023/11/25 05:09:04;;;;;;;4.22;2.55;;;;;;;;;;6111174;23;20018;-81
2023/11/25 05:11:32;;;;;;;4.90;3.30;;;;;;;;;;6162090;23;20346;-81
2023/11/25 05:14:02;;;;;;;9.93;3.55;;;;;;;;;;6135669;23;20028;-81
2023/11/25 05:16:29;;;;;;;2.78;2.20;;;;;;;;;;6170738;23;20013;-81
2023/11/25 05:18:56;;;;;;;3.65;2.95;;;;;;;;;;6135381;23;20477;-81
2023/11/25 05:21:24;;;;;;;4.38;2.75;;;;;;;;;;6164338;23;20020;-81
2023/11/25 05:23:51;;;;;;;6.18;3.45;;;;;;;;;;6136061;23;20010;-81
2023/11/25 05:26:18;;;;;;;4.20;2.53;;;;;;;;;;6135536;23;20017;-81
2023/11/25 05:28:45;;;;;;;3.38;2.50;;;;;;;;;;6109796;23;20354;-81
2023/11/25 05:31:14;;;;;;;8.02;4.13;;;;;;;;;;6137079;23;20018;-81
2023/11/25 05:33:41;;;;;;;4.38;3.40;;;;;;;;;;6160833;23;20044;-81
2023/11/25 05:36:09;;;;;;;2.92;2.60;;;;;;;;;;6135577;23;20021;-81
2023/11/25 05:38:36;;;;;;;3.63;2.90;;;;;;;;;;6110546;23;20013;-81
2023/11/25 05:41:04;;;;;;;2.92;2.47;;;;;;;;;;6111459;23;20028;-81
2023/11/25 05:43:31;;;;;;;3.65;2.38;;;;;;;;;;6110774;23;20013;-81
2023/11/25 05:45:59;;;;;;;5.28;3.38;;;;;;;;;;6111645;23;20031;-81
2023/11/25 05:48:27;;;;;;;3.28;2.15;;;;;;;;;;6158081;23;20032;-81
2023/11/25 05:50:55;;;;;;;3.90;2.47;;;;;;;;;;6110907;23;20040;-81
2023/11/25 05:53:22;;;;;;;4.82;2.55;;;;;;;;;;6111068;23;20504;-81
2023/11/25 05:55:49;;;;;;;4.28;2.72;;;;;;;;;;6110775;23;20381;-81
2023/11/25 05:58:17;;;;;;;2.58;2.13;;;;;;;;;;6134168;23;20025;-81
2023/11/25 06:00:44;;;;;;;3.83;2.45;;;;;;;;;;6110074;23;20017;-81
2023/11/25 06:03:11;;;;;;;3.08;2.47;;;;;;;;;;6108839;23;20028;-81
2023/11/25 06:05:40;;;;;;;6.32;2.35;;;;;;;;;;6110553;23;20013;-81
2023/11/25 06:08:30;;;;;;;2.35;2.15;;;;;;;;;;6109685;23;20018;-80
2023/11/25 06:10:58;;;;;;;3.03;1.92;;;;;;;;;;6047406;23;20421;-80
2023/11/25 06:13:25;;;;;;;3.65;2.25;;;;;;;;;;6135031;23;20480;-80
2023/11/25 06:15:53;;;;;;;3.63;2.00;;;;;;;;;;6135418;23;20021;-80
2023/11/25 06:18:20;;;;;;;2.15;1.60;;;;;;;;;;6134808;23;20036;-80
2023/11/25 06:20:50;;;;;;;1.98;1.67;;;;;;;;;;6111829;23;20025;-80
2023/11/25 06:23:17;;;;;;;6.55;2.10;;;;;;;;;;6133437;23;20024;-81
2023/11/25 06:25:45;;;;;;;4.03;1.40;;;;;;;;;;6160933;23;20450;-81
2023/11/25 06:28:14;;;;;;;2.35;1.45;;;;;;;;;;6135003;23;20023;-81
2023/11/25 06:30:41;;;;;;;5.07;2.25;;;;;;;;;;6161367;23;20017;-81
2023/11/25 06:33:08;;;;;;;3.78;2.65;;;;;;;;;;6135215;23;20021;-80
2023/11/25 06:35:37;;;;;;;2.25;2.00;;;;;;;;;;6163184;23;20024;-80
2023/11/25 06:38:07;;;;;;;3.58;2.13;;;;;;;;;;6161174;23;20018;-80
2023/11/25 06:40:35;;;;;;;3.75;2.17;;;;;;;;;;6168956;23;20021;-80
2023/11/25 06:43:02;;;;;;;2.70;1.65;;;;;;;;;;6135985;23;20029;-80
2023/11/25 06:45:29;;;;;;;5.38;2.13;;;;;;;;;;6135996;23;20013;-80
2023/11/25 09:41:17;;;;;;;2.22;1.65;;;;;;;;;;6194980;23;20027;-81
2023/11/25 09:43:45;;;;;;;6.20;3.17;;;;;;;;;;6144067;23;20481;-81
2023/11/25 09:46:14;;;;;;;5.53;2.40;;;;;;;;;;6170155;23;20023;-81
2023/11/25 09:48:41;;;;;;;3.85;2.95;;;;;;;;;;6143053;23;20025;-81
2023/11/25 09:51:09;;;;;;;4.97;1.60;;;;;;;;;;6167646;23;20021;-81
2023/11/25 09:53:38;;;;;;;3.97;2.00;;;;;;;;;;6167932;23;20043;-81
2023/11/25 09:56:07;;;;;;;5.88;2.10;;;;;;;;;;6168229;23;20017;-81
2023/11/25 09:58:37;;;;;;;7.18;3.20;;;;;;;;;;6168018;23;20014;-81
2023/11/25 10:01:05;;;;;;;7.22;4.18;;;;;;;;;;6167845;23;20017;-81
2023/11/25 10:03:34;;;;;;;2.53;2.20;;;;;;;;;;6175913;23;20005;-80
2023/11/25 10:06:03;;;;;;;4.10;2.08;;;;;;;;;;6159984;23;20056;-80
2023/11/25 10:08:32;;;;;;;2.63;1.65;;;;;;;;;;6162135;23;20052;-80
2023/11/25 10:11:05;;;;;;;6.22;1.98;;;;;;;;;;6161512;23;20080;-80
2023/11/25 10:13:34;;;;;;;12.32;3.40;;;;;;;;;;6187313;23;20080;-80
2023/11/25 10:16:03;;;;;;;3.97;2.03;;;;;;;;;;6158463;23;20017;-80
2023/11/25 10:18:31;;;;;;;3.33;2.20;;;;;;;;;;6148242;23;20047;-80
2023/11/25 10:20:58;;;;;;;7.00;2.38;;;;;;;;;;6167324;23;20017;-80
2023/11/25 10:23:26;;;;;;;7.90;3.00;;;;;;;;;;6136384;23;20339;-80
2023/11/25 10:25:54;;;;;;;7.70;2.78;;;;;;;;;;6161182;23;20350;-81
2023/11/25 10:28:21;;;;;;;4.65;2.75;;;;;;;;;;6161808;23;20027;-78
2023/11/25 10:30:55;;;;;;;6.00;3.22;;;;;;;;;;6157886;23;20353;-77
2023/11/25 10:33:24;;;;;;;9.05;3.92;;;;;;;;;;6134489;23;20017;-77
2023/11/25 10:35:52;;;;;;;6.25;2.85;;;;;;;;;;6194075;23;20445;-78
2023/11/25 10:38:26;;;;;;;6.13;2.80;;;;;;;;;;6158513;23;20021;-79
2023/11/25 10:41:00;;;;;;;5.75;2.72;;;;;;;;;;6133841;23;20472;-79
2023/11/25 10:43:29;;;;;;;4.88;2.38;;;;;;;;;;6157789;23;20024;-79
2023/11/25 10:46:03;;;;;;;6.32;2.78;;;;;;;;;;6193819;23;20030;-78
2023/11/25 10:48:34;;;;;;;4.82;2.67;;;;;;;;;;6157442;23;20028;-78
2023/11/25 10:51:02;;;;;;;4.32;2.85;;;;;;;;;;6158322;23;20077;-79
2023/11/25 10:53:32;;;;;;;9.82;3.67;;;;;;;;;;6158468;23;20048;-79
2023/11/25 10:56:03;;;;;;;5.65;3.42;;;;;;;;;;6159311;23;20021;-79
2023/11/25 10:58:35;;;;;;;6.68;3.67;;;;;;;;;;6134535;23;20486;-79
2023/11/25 11:01:05;;;;;;;13.52;5.00;;;;;;;;;;6134357;23;20023;-79
2023/11/25 11:03:51;;;;;;;7.82;3.72;;;;;;;;;;6135223;23;20024;-79
2023/11/25 11:06:22;;;;;;;4.50;3.55;;;;;;;;;;6134135;23;20029;-79
2023/11/25 11:08:49;;;;;;;12.00;3.40;;;;;;;;;;6134184;23;20028;-79
2023/11/25 11:11:31;;;;;;;3.55;2.63;;;;;;;;;;6184031;23;20021;-79
2023/11/25 11:14:03;;;;;;;14.00;3.60;;;;;;;;;;6135280;23;20040;-79
2023/11/25 11:16:34;;;;;;;6.10;2.80;;;;;;;;;;6158418;23;20024;-79
2023/11/25 11:19:07;;;;;;;6.50;2.70;;;;;;;;;;6158991;23;20017;-79
2023/11/25 11:21:37;;;;;;;10.73;4.47;;;;;;;;;;6158103;23;20017;-79
2023/11/25 11:24:07;;;;;;;8.10;5.63;;;;;;;;;;6158120;23;20040;-79
2023/11/25 11:26:43;;;;;;;7.80;4.93;;;;;;;;;;6133595;23;20013;-79
2023/11/25 11:29:17;;;;;;;4.95;2.88;;;;;;;;;;6132874;23;20024;-79
2023/11/25 11:31:57;;;;;;;9.18;3.83;;;;;;;;;;6134229;23;20032;-79
2023/11/25 11:34:29;;;;;;;8.75;4.47;;;;;;;;;;6158979;23;20013;-79
2023/11/25 11:36:56;;;;;;;7.90;3.25;;;;;;;;;;6184543;23;20013;-79
2023/11/25 11:39:46;;;;;;;6.10;3.35;;;;;;;;;;6159217;23;20318;-79
2023/11/25 11:42:34;;;;;;;13.70;4.13;;;;;;;;;;6129303;23;20032;-79
2023/11/25 11:45:21;;;;;;;6.50;4.22;;;;;;;;;;6168496;23;20040;-79
2023/11/25 11:47:52;;;;;;;10.13;3.40;;;;;;;;;;6157803;23;20461;-79
2023/11/25 11:50:29;;;;;;;9.85;3.28;;;;;;;;;;6134619;23;20028;-79
2023/11/25 11:53:15;;;;;;;9.05;3.05;;;;;;;;;;6158056;23;20025;-79
2023/11/25 11:55:44;;;;;;;9.13;3.72;;;;;;;;;;6133041;23;20013;-79
2023/11/25 11:58:12;;;;;;;4.60;3.85;;;;;;;;;;6132863;23;20021;-79
2023/11/25 12:00:48;;;;;;;7.00;3.50;;;;;;;;;;6184868;23;20023;-79
2023/11/25 12:03:19;;;;;;;7.55;3.13;;;;;;;;;;6134435;23;20017;-79
2023/11/25 12:05:47;;;;;;;8.63;4.18;;;;;;;;;;6158168;23;20013;-79
2023/11/25 12:08:14;;;;;;;8.20;3.80;;;;;;;;;;6157572;23;20017;-79
2023/11/25 12:10:42;;;;;;;7.75;4.22;;;;;;;;;;6183956;23;20024;-79
2023/11/25 12:13:11;;;;;;;5.80;4.25;;;;;;;;;;6158893;23;20044;-79
2023/11/25 12:15:40;;;;;;;8.38;4.07;;;;;;;;;;6134004;23;20468;-79
2023/11/25 12:18:11;;;;;;;4.18;3.78;;;;;;;;;;6158126;23;20024;-79
2023/11/25 12:20:41;;;;;;;8.15;4.47;;;;;;;;;;6189672;23;20036;-79
2023/11/25 12:23:10;;;;;;;8.35;3.33;;;;;;;;;;6157407;23;20024;-79
2023/11/25 12:25:37;;;;;;;12.45;3.97;;;;;;;;;;6158294;23;20021;-79
2023/11/25 12:28:08;;;;;;;15.90;3.83;;;;;;;;;;6183737;23;20449;-79
2023/11/25 12:30:39;;;;;;;6.97;4.40;;;;;;;;;;6133870;23;20017;-79
2023/11/25 12:33:10;;;;;;;6.55;3.13;;;;;;;;;;6134103;23;20032;-79
2023/11/25 12:35:39;;;;;;;10.18;3.75;;;;;;;;;;6167712;23;20020;-79
2023/11/25 12:38:11;;;;;;;13.75;4.05;;;;;;;;;;6133145;23;20025;-79
2023/11/25 12:40:42;;;;;;;10.30;4.18;;;;;;;;;;6157201;23;20017;-79
2023/11/25 12:43:11;;;;;;;8.88;4.25;;;;;;;;;;6133953;23;20025;-79
2023/11/25 12:45:40;;;;;;;8.32;3.72;;;;;;;;;;6132897;23;20395;-79
2023/11/25 12:48:12;;;;;;;7.15;2.75;;;;;;;;;;6168259;23;20013;-78
2023/11/25 12:51:01;;;;;;;6.10;3.58;;;;;;;;;;6133223;23;20017;-78
2023/11/25 12:53:31;;;;;;;7.60;3.42;;;;;;;;;;6194631;23;20012;-78
2023/11/25 12:55:59;;;;;;;4.60;4.15;;;;;;;;;;6157802;23;20021;-79
2023/11/25 12:58:29;;;;;;;6.20;3.05;;;;;;;;;;6156463;23;20043;-79
2023/11/25 13:00:59;;;;;;;7.47;2.80;;;;;;;;;;6133701;23;20365;-79
2023/11/25 13:03:31;;;;;;;6.72;4.22;;;;;;;;;;6133266;23;20017;-79
2023/11/25 13:05:59;;;;;;;6.10;4.93;;;;;;;;;;6133732;23;20017;-79
2023/11/25 13:08:31;;;;;;;3.45;2.70;;;;;;;;;;6157925;23;20073;-79
2023/11/25 13:11:03;;;;;;;5.95;4.07;;;;;;;;;;6132189;23;20017;-79
2023/11/25 13:13:34;;;;;;;6.38;3.28;;;;;;;;;;6134387;23;20025;-79
2023/11/25 13:16:08;;;;;;;3.88;2.38;;;;;;;;;;6133204;23;20103;-79
2023/11/25 13:18:35;;;;;;;5.53;3.70;;;;;;;;;;6167268;23;20016;-79
2023/11/25 13:21:06;;;;;;;6.25;3.60;;;;;;;;;;6132966;23;20357;-79
2023/11/25 13:23:34;;;;;;;7.47;2.85;;;;;;;;;;6133305;23;20017;-79
2023/11/25 13:26:08;;;;;;;4.72;3.53;;;;;;;;;;6193828;23;20024;-79
2023/11/25 13:28:38;;;;;;;8.23;3.03;;;;;;;;;;6156984;23;20032;-79
2023/11/25 13:31:06;;;;;;;5.03;3.17;;;;;;;;;;6133506;23;20024;-79
2023/11/25 13:33:35;;;;;;;6.47;3.88;;;;;;;;;;6167472;23;20017;-79
2023/11/25 13:36:06;;;;;;;3.42;3.10;;;;;;;;;;6132597;23;20017;-79
2023/11/25 13:38:37;;;;;;;5.00;3.78;;;;;;;;;;6133088;23;20044;-79
2023/11/25 13:41:13;;;;;;;10.23;5.03;;;;;;;;;;6159742;23;20469;-79
2023/11/25 13:43:42;;;;;;;6.80;3.10;;;;;;;;;;6197525;23;20009;-79
2023/11/25 13:46:10;;;;;;;10.40;4.35;;;;;;;;;;6134126;23;20362;-78
2023/11/25 13:48:37;;;;;;;5.20;3.50;;;;;;;;;;6133382;23;20025;-78
2023/11/25 13:51:08;;;;;;;3.97;2.85;;;;;;;;;;6158500;23;20017;-79
2023/11/25 13:53:38;;;;;;;5.35;3.28;;;;;;;;;;6196895;23;20017;-79
2023/11/25 13:56:10;;;;;;;6.93;3.55;;;;;;;;;;6159756;23;20017;-80
2023/11/25 13:58:41;;;;;;;5.95;4.40;;;;;;;;;;6133619;23;20017;-79
2023/11/25 14:01:11;;;;;;;6.03;3.90;;;;;;;;;;6158354;23;20024;-79
2023/11/25 14:03:41;;;;;;;7.80;3.53;;;;;;;;;;6134024;23;20364;-79
2023/11/25 14:06:08;;;;;;;3.55;3.25;;;;;;;;;;6134308;23;20020;-79
2023/11/25 14:08:38;;;;;;;5.45;3.97;;;;;;;;;;6133722;23;20013;-79
2023/11/25 14:11:05;;;;;;;8.40;4.25;;;;;;;;;;6134643;23;20017;-79
2023/11/25 14:13:33;;;;;;;5.03;4.10;;;;;;;;;;6185731;23;20013;-79
2023/11/25 14:16:02;;;;;;;4.93;3.33;;;;;;;;;;6135099;23;20020;-79
2023/11/25 14:18:29;;;;;;;7.97;3.00;;;;;;;;;;6134393;23;20473;-79
2023/11/25 14:20:56;;;;;;;4.70;3.67;;;;;;;;;;6134411;23;20068;-79
2023/11/25 14:23:24;;;;;;;8.18;3.88;;;;;;;;;;6134882;23;20025;-79
2023/11/25 14:25:51;;;;;;;8.13;3.58;;;;;;;;;;6159001;23;20017;-79
2023/11/25 14:28:18;;;;;;;8.32;5.20;;;;;;;;;;6134718;23;20013;-79
2023/11/25 14:30:48;;;;;;;6.85;4.55;;;;;;;;;;6159090;23;20353;-79
2023/11/25 14:33:19;;;;;;;4.63;4.15;;;;;;;;;;6185754;23;20025;-79
2023/11/25 14:35:51;;;;;;;7.85;4.85;;;;;;;;;;6135327;23;20020;-78
2023/11/25 14:38:18;;;;;;;4.95;3.22;;;;;;;;;;6162994;23;20023;-80
2023/11/25 14:40:48;;;;;;;5.03;4.53;;;;;;;;;;6164764;23;20371;-81
2023/11/25 14:43:15;;;;;;;8.43;3.95;;;;;;;;;;6164050;23;20025;-80
2023/11/25 14:45:43;;;;;;;4.30;3.65;;;;;;;;;;6140327;23;20040;-79
2023/11/25 14:48:13;;;;;;;3.67;2.33;;;;;;;;;;6165551;23;20017;-80
2023/11/25 14:50:41;;;;;;;10.15;2.67;;;;;;;;;;6138117;23;20025;-80
2023/11/25 14:53:13;;;;;;;3.05;2.75;;;;;;;;;;6139974;23;20025;-80
2023/11/25 14:55:42;;;;;;;5.47;2.78;;;;;;;;;;6140368;23;20021;-80
2023/11/25 14:58:12;;;;;;;5.05;2.83;;;;;;;;;;6201312;23;20471;-80
2023/11/25 15:00:41;;;;;;;4.50;2.88;;;;;;;;;;6139829;23;20021;-80
2023/11/25 15:03:09;;;;;;;4.53;3.10;;;;;;;;;;6163990;23;20074;-80
2023/11/25 15:05:39;;;;;;;8.40;2.92;;;;;;;;;;6164323;23;20027;-80
2023/11/25 15:08:12;;;;;;;4.28;2.95;;;;;;;;;;6139232;23;20024;-80
2023/11/25 15:10:40;;;;;;;4.35;3.05;;;;;;;;;;6167985;23;20017;-80
2023/11/25 15:13:10;;;;;;;6.10;4.18;;;;;;;;;;6163322;23;20477;-80
2023/11/25 15:15:37;;;;;;;6.65;4.18;;;;;;;;;;6139365;23;20017;-80
2023/11/25 15:18:07;;;;;;;2.78;2.45;;;;;;;;;;6165138;23;20340;-80
2023/11/25 15:20:34;;;;;;;8.13;3.92;;;;;;;;;;6164052;23;20021;-80
2023/11/25 15:23:03;;;;;;;6.90;2.78;;;;;;;;;;6138291;23;20021;-79
2023/11/25 15:25:32;;;;;;;5.22;2.67;;;;;;;;;;6162818;23;20032;-80
2023/11/25 15:28:01;;;;;;;3.30;2.20;;;;;;;;;;6190898;23;20020;-80
2023/11/25 15:30:30;;;;;;;4.50;2.40;;;;;;;;;;6188083;23;20017;-80
2023/11/25 15:32:59;;;;;;;6.28;2.58;;;;;;;;;;6140245;23;20027;-80
2023/11/25 15:35:26;;;;;;;2.83;2.50;;;;;;;;;;6191012;23;20013;-80
2023/11/25 15:37:56;;;;;;;5.93;1.75;;;;;;;;;;6189875;23;20009;-80
2023/11/25 15:40:25;;;;;;;3.72;2.08;;;;;;;;;;6139435;23;20020;-80
2023/11/25 15:42:54;;;;;;;3.00;2.00;;;;;;;;;;6163784;23;20461;-80
2023/11/25 15:45:22;;;;;;;4.15;2.63;;;;;;;;;;6164449;23;20013;-80
2023/11/25 15:47:51;;;;;;;4.40;2.15;;;;;;;;;;6163792;23;20028;-80
2023/11/25 15:50:21;;;;;;;3.20;2.00;;;;;;;;;;6164088;23;20465;-80
2023/11/25 15:52:50;;;;;;;3.53;1.98;;;;;;;;;;6190295;23;20023;-80
2023/11/25 15:55:18;;;;;;;2.78;2.20;;;;;;;;;;6139954;23;20345;-80
2023/11/25 15:57:50;;;;;;;3.60;1.95;;;;;;;;;;6136277;23;20021;-80
2023/11/25 16:00:21;;;;;;;7.68;2.03;;;;;;;;;;6135302;23;20021;-79
2023/11/25 16:02:52;;;;;;;4.30;2.22;;;;;;;;;;6160091;23;20330;-80
2023/11/25 16:05:22;;;;;;;5.00;2.63;;;;;;;;;;6187455;23;20024;-80
2023/11/25 16:07:50;;;;;;;3.08;2.28;;;;;;;;;;6135660;23;20013;-80
2023/11/25 16:10:17;;;;;;;3.53;2.15;;;;;;;;;;6186389;23;20017;-79
2023/11/25 16:12:47;;;;;;;3.20;2.17;;;;;;;;;;6159682;23;20469;-79
2023/11/25 16:15:15;;;;;;;5.65;2.88;;;;;;;;;;6136340;23;20017;-79
2023/11/25 16:17:44;;;;;;;3.17;2.35;;;;;;;;;;6160526;23;20013;-79
2023/11/25 16:20:15;;;;;;;4.07;2.60;;;;;;;;;;6137062;23;20032;-79
2023/11/25 16:22:44;;;;;;;5.60;2.80;;;;;;;;;;6160711;23;20024;-80
2023/11/25 16:25:12;;;;;;;4.40;2.78;;;;;;;;;;6135204;23;20021;-80
2023/11/25 16:27:40;;;;;;;2.78;2.30;;;;;;;;;;6138499;23;20023;-80
2023/11/25 16:30:13;;;;;;;2.75;2.17;;;;;;;;;;6128434;23;20013;-77
2023/11/25 16:32:40;;;;;;;2.30;1.75;;;;;;;;;;6139019;23;20013;-78
2023/11/25 16:35:15;;;;;;;4.22;3.03;;;;;;;;;;6103940;23;20334;-79
2023/11/25 16:37:43;;;;;;;2.55;2.35;;;;;;;;;;6131927;23;20021;-79
2023/11/25 16:40:11;;;;;;;4.03;2.75;;;;;;;;;;6133746;23;20017;-79
2023/11/25 16:42:39;;;;;;;4.13;2.75;;;;;;;;;;6140549;23;20017;-79
2023/11/25 16:45:09;;;;;;;3.58;3.03;;;;;;;;;;6104263;23;20361;-79
2023/11/25 16:47:36;;;;;;;3.08;2.67;;;;;;;;;;6127238;23;20010;-79
2023/11/25 16:50:07;;;;;;;3.10;2.08;;;;;;;;;;6154615;23;20018;-79
2023/11/25 16:52:38;;;;;;;4.15;3.00;;;;;;;;;;6153744;23;20026;-78
2023/11/25 16:55:07;;;;;;;2.15;1.88;;;;;;;;;;6127780;23;20020;-78
2023/11/25 16:57:39;;;;;;;2.88;2.03;;;;;;;;;;6139439;23;20070;-79
2023/11/25 17:00:11;;;;;;;3.85;2.45;;;;;;;;;;6127701;23;20040;-79
2023/11/25 17:02:38;;;;;;;4.88;2.08;;;;;;;;;;6104163;23;20014;-79
2023/11/25 17:05:07;;;;;;;4.50;3.00;;;;;;;;;;6127873;23;20024;-79
2023/11/25 17:07:39;;;;;;;4.78;2.45;;;;;;;;;;6137457;23;20024;-79
2023/11/25 17:10:08;;;;;;;2.72;2.13;;;;;;;;;;6153357;23;20024;-79
2023/11/25 17:12:37;;;;;;;8.07;3.53;;;;;;;;;;6103121;23;20017;-79
2023/11/25 17:15:06;;;;;;;5.90;2.45;;;;;;;;;;6103434;23;20025;-79
2023/11/25 17:17:38;;;;;;;2.53;1.50;;;;;;;;;;6126727;23;20021;-79
2023/11/25 17:20:10;;;;;;;6.32;1.80;;;;;;;;;;6104522;23;20018;-79
2023/11/25 17:22:39;;;;;;;2.88;2.65;;;;;;;;;;6102691;23;20567;-79
2023/11/25 17:25:08;;;;;;;6.18;3.20;;;;;;;;;;6103074;23;20028;-79
2023/11/25 17:27:35;;;;;;;4.22;1.85;;;;;;;;;;6102930;23;20018;-79
2023/11/25 17:30:03;;;;;;;2.58;1.67;;;;;;;;;;6103164;23;20250;-79
2023/11/25 17:32:31;;;;;;;3.42;2.20;;;;;;;;;;6154414;23;20017;-79
2023/11/25 17:35:04;;;;;;;5.80;2.30;;;;;;;;;;6104377;23;20018;-79
2023/11/25 17:37:32;;;;;;;4.40;1.88;;;;;;;;;;6153686;23;20017;-79
2023/11/25 17:40:04;;;;;;;2.97;2.42;;;;;;;;;;6099809;23;20037;-79
2023/11/25 17:42:31;;;;;;;4.85;2.05;;;;;;;;;;6102277;23;20018;-79
2023/11/25 17:44:58;;;;;;;2.53;1.88;;;;;;;;;;6128198;23;20021;-79
2023/11/25 17:47:30;;;;;;;2.20;2.00;;;;;;;;;;6125502;23;20037;-79
2023/11/25 17:50:02;;;;;;;4.13;2.40;;;;;;;;;;6103459;23;20017;-79
2023/11/25 17:52:29;;;;;;;2.47;2.15;;;;;;;;;;6103303;23;20028;-79
2023/11/25 17:54:57;;;;;;;2.45;2.10;;;;;;;;;;6128917;23;20023;-79
2023/11/25 17:57:26;;;;;;;4.18;2.70;;;;;;;;;;6153758;23;20014;-79
2023/11/25 17:59:55;;;;;;;2.75;2.17;;;;;;;;;;6127405;23;20017;-79
2023/11/25 18:02:25;;;;;;;2.00;1.80;;;;;;;;;;6103697;23;20353;-79
2023/11/25 18:04:52;;;;;;;4.88;2.58;;;;;;;;;;6127539;23;20024;-79
2023/11/25 18:07:20;;;;;;;2.40;1.80;;;;;;;;;;6125909;23;20032;-78
2023/11/25 18:09:50;;;;;;;3.67;1.77;;;;;;;;;;6102094;23;20024;-79
2023/11/25 18:12:17;;;;;;;3.45;1.60;;;;;;;;;;6127958;23;20037;-79
2023/11/25 18:14:46;;;;;;;3.83;2.63;;;;;;;;;;6101531;23;20357;-79
2023/11/25 18:17:13;;;;;;;4.05;2.05;;;;;;;;;;6099588;23;20028;-79
2023/11/25 18:19:40;;;;;;;2.15;1.75;;;;;;;;;;6124785;23;20477;-79
2023/11/25 18:22:09;;;;;;;5.32;2.53;;;;;;;;;;6100829;23;20026;-79
2023/11/25 18:24:36;;;;;;;3.80;2.78;;;;;;;;;;6102520;23;20017;-79
2023/11/25 18:27:09;;;;;;;4.72;2.25;;;;;;;;;;6105194;23;20021;-79
2023/11/25 18:29:38;;;;;;;4.13;3.63;;;;;;;;;;6105210;23;20338;-79
2023/11/25 18:32:07;;;;;;;4.85;3.53;;;;;;;;;;6128594;23;20506;-79
2023/11/25 18:34:35;;;;;;;4.07;3.03;;;;;;;;;;6128879;23;20071;-79
2023/11/25 18:37:02;;;;;;;4.32;3.80;;;;;;;;;;6103551;23;20480;-79
2023/11/25 18:39:32;;;;;;;6.57;4.63;;;;;;;;;;6100952;23;20657;-79
2023/11/25 18:41:59;;;;;;;9.90;5.57;;;;;;;;;;6104128;23;20032;-79
2023/11/25 18:44:29;;;;;;;6.47;3.47;;;;;;;;;;6127686;23;20021;-79
2023/11/25 18:46:56;;;;;;;3.90;2.83;;;;;;;;;;6126384;23;20021;-79
2023/11/25 18:49:27;;;;;;;4.60;4.05;;;;;;;;;;6128169;23;20009;-79
2023/11/25 18:52:01;;;;;;;6.50;3.72;;;;;;;;;;6154457;23;20352;-79
2023/11/25 18:54:32;;;;;;;;;;;;;;;;;;6129115;23;20029;-79
2023/11/25 18:57:01;;;;;;;4.20;3.00;;;;;;;;;;6151742;23;19924;-79
2023/11/25 18:59:29;;;;;;;4.05;2.83;;;;;;;;;;6097829;23;20022;-79
2023/11/25 19:01:58;;;;;;;4.20;2.70;;;;;;;;;;6096528;23;20017;-79
2023/11/25 19:04:27;;;;;;;5.63;4.00;;;;;;;;;;6152087;23;20017;-79
2023/11/25 19:06:55;;;;;;;4.57;2.53;;;;;;;;;;6128777;23;20024;-79
2023/11/25 19:09:22;;;;;;;5.38;3.67;;;;;;;;;;6103420;23;20017;-79
2023/11/25 19:11:51;;;;;;;6.07;3.83;;;;;;;;;;6104978;23;20358;-79
2023/11/25 19:14:19;;;;;;;4.88;3.45;;;;;;;;;;6128009;23;20021;-79
2023/11/25 19:16:46;;;;;;;5.40;3.55;;;;;;;;;;6102921;23;20018;-79
2023/11/25 19:19:16;;;;;;;4.68;3.13;;;;;;;;;;6155553;23;20468;-78
2023/11/25 19:21:45;;;;;;;4.38;2.53;;;;;;;;;;6129366;23;20014;-79
2023/11/25 19:24:12;;;;;;;6.70;2.33;;;;;;;;;;6104203;23;20043;-79
2023/11/25 19:26:42;;;;;;;3.83;2.80;;;;;;;;;;6154204;23;20017;-79
2023/11/25 19:29:14;;;;;;;3.90;2.10;;;;;;;;;;6105358;23;20021;-79
2023/11/25 19:31:41;;;;;;;4.82;3.33;;;;;;;;;;6152951;23;20349;-79
2023/11/25 19:34:08;;;;;;;3.72;2.22;;;;;;;;;;6128362;23;20017;-79
2023/11/25 19:36:38;;;;;;;4.65;3.30;;;;;;;;;;6104519;23;20029;-79
2023/11/25 19:39:06;;;;;;;3.53;2.53;;;;;;;;;;6103636;23;20349;-79
2023/11/25 19:41:36;;;;;;;6.47;2.78;;;;;;;;;;6125805;23;20021;-79
2023/11/25 19:44:06;;;;;;;4.45;2.45;;;;;;;;;;6137965;23;20013;-79
2023/11/25 19:46:34;;;;;;;5.05;2.90;;;;;;;;;;6129276;23;20017;-79
2023/11/25 19:49:02;;;;;;;2.88;2.05;;;;;;;;;;6128281;23;20033;-79
2023/11/25 19:51:29;;;;;;;4.03;2.30;;;;;;;;;;6126841;23;20037;-79
2023/11/25 19:54:00;;;;;;;6.32;2.50;;;;;;;;;;6102789;23;20036;-79
2023/11/25 19:56:34;;;;;;;3.33;2.97;;;;;;;;;;6128420;23;20457;-79
2023/11/25 19:59:01;;;;;;;4.85;3.03;;;;;;;;;;6165022;23;20017;-80
2023/11/25 20:01:29;;;;;;;6.07;3.03;;;;;;;;;;6129001;23;20028;-79
2023/11/25 20:03:56;;;;;;;5.28;2.65;;;;;;;;;;6101842;23;20532;-79
2023/11/25 20:06:24;;;;;;;2.90;2.25;;;;;;;;;;6126866;23;20022;-79
2023/11/25 20:08:53;;;;;;;3.20;2.60;;;;;;;;;;6152006;23;20017;-79
2023/11/25 20:11:23;;;;;;;4.53;2.60;;;;;;;;;;6103248;23;20485;-79
2023/11/25 20:13:54;;;;;;;3.13;2.53;;;;;;;;;;6102365;23;20018;-79
2023/11/25 20:16:21;;;;;;;6.38;2.53;;;;;;;;;;6138217;23;20478;-79
2023/11/25 20:18:49;;;;;;;3.53;2.45;;;;;;;;;;6153459;23;20017;-79
2023/11/25 20:21:19;;;;;;;3.50;2.30;;;;;;;;;;6103836;23;20508;-79
2023/11/25 20:23:48;;;;;;;2.83;1.85;;;;;;;;;;6103850;23;20025;-79